Time;durP1;ratioP1;P1;durP2;ratioP2;P2;SDS_P1;SDS_P2;PMS_P1;PMS_P2;Temp;Humidity;BMP_temperature;BMP_pressure;BME280_temperature;BME280_humidity;BME280_pressure;Samples;Min_cycle;Max_cycle;Signal;HPM_P1;HPM_P2
2023/07/05 00:01:16;;;;;;;10.10;4.72;;;;;;;16.56;86.56;100396.44;5064718;28;20095;-77
2023/07/05 00:03:43;;;;;;;8.30;4.50;;;;;;;16.48;87.80;100397.84;5064628;28;20660;-76
2023/07/05 00:06:10;;;;;;;10.25;4.63;;;;;;;16.39;88.27;100388.63;5064107;28;20600;-76
2023/07/05 00:08:37;;;;;;;8.95;4.03;;;;;;;16.31;89.89;100381.13;5049062;28;20509;-77
2023/07/05 00:11:07;;;;;;;12.57;3.83;;;;;;;16.27;90.39;100377.81;5065851;28;20059;-77
2023/07/05 00:13:35;;;;;;;8.50;4.00;;;;;;;16.23;91.24;100370.97;5066984;28;20478;-77
2023/07/05 00:16:03;;;;;;;7.88;3.97;;;;;;;16.20;91.62;100364.97;5066506;28;20504;-77
2023/07/05 00:18:32;;;;;;;6.90;4.00;;;;;;;16.16;91.74;100364.31;5064849;28;20111;-78
2023/07/05 00:21:08;;;;;;;7.85;4.07;;;;;;;16.16;92.53;100361.66;5064477;28;20095;-75
2023/07/05 00:23:37;;;;;;;9.38;4.13;;;;;;;16.14;92.90;100351.09;5061947;28;20141;-77
2023/07/05 00:26:07;;;;;;;8.77;4.10;;;;;;;16.14;93.43;100334.31;5065196;28;20592;-77
2023/07/05 00:28:34;;;;;;;7.63;3.65;;;;;;;16.12;93.65;100320.25;5065381;28;20873;-78
2023/07/05 00:31:03;;;;;;;8.18;4.20;;;;;;;16.11;94.25;100306.09;5066229;28;20052;-78
2023/07/05 00:33:33;;;;;;;6.18;3.80;;;;;;;16.10;94.10;100304.41;5062635;28;20055;-77
2023/07/05 00:36:01;;;;;;;6.70;3.63;;;;;;;16.08;94.38;100305.41;5065367;28;20049;-77
2023/07/05 00:38:28;;;;;;;7.25;3.75;;;;;;;16.06;94.72;100294.06;5067687;28;20064;-77
2023/07/05 00:40:55;;;;;;;7.38;3.70;;;;;;;16.04;94.72;100282.66;5064808;28;20619;-78
2023/07/05 00:43:22;;;;;;;7.25;4.10;;;;;;;16.03;95.61;100279.13;5066018;28;20045;-78
2023/07/05 00:45:59;;;;;;;6.97;4.10;;;;;;;16.04;95.96;100280.84;5062288;28;20520;-79
2023/07/05 00:48:43;;;;;;;7.90;4.03;;;;;;;16.04;95.82;100280.84;5060338;28;20048;-76
2023/07/05 00:51:20;;;;;;;6.40;4.35;;;;;;;16.02;96.25;100256.16;5063103;28;20099;-77
2023/07/05 00:53:48;;;;;;;6.93;3.90;;;;;;;15.98;96.58;100247.50;5065480;28;20033;-78
2023/07/05 00:56:25;;;;;;;9.70;4.68;;;;;;;15.95;96.85;100238.88;5065218;28;20040;-77
2023/07/05 00:58:54;;;;;;;9.98;4.30;;;;;;;15.92;96.89;100236.44;5061471;28;20092;-77
2023/07/05 01:01:21;;;;;;;10.50;4.07;;;;;;;15.90;97.51;100219.72;5059177;28;20052;-78
2023/07/05 01:03:54;;;;;;;7.47;4.45;;;;;;;15.90;98.06;100204.59;5063975;28;20124;-78
2023/07/05 01:06:24;;;;;;;7.40;4.07;;;;;;;15.90;97.67;100204.59;5066706;28;20036;-77
2023/07/05 01:08:52;;;;;;;7.32;4.25;;;;;;;15.90;98.09;100195.78;5061984;28;20136;-76
2023/07/05 01:11:55;;;;;;;7.45;4.03;;;;;;;15.88;98.36;100185.25;5064628;28;20045;-78
2023/07/05 01:14:40;;;;;;;7.18;4.28;;;;;;;15.86;98.22;100184.50;5062104;28;20049;-78
2023/07/05 01:17:13;;;;;;;8.55;4.53;;;;;;;15.83;98.53;100182.84;5063004;28;20088;-78
2023/07/05 01:20:10;;;;;;;7.88;4.95;;;;;;;15.86;98.57;100183.63;5064373;28;20047;-77
2023/07/05 01:23:02;;;;;;;6.47;4.38;;;;;;;15.86;98.65;100181.84;5064171;28;20045;-76
2023/07/05 01:25:57;;;;;;;8.77;4.55;;;;;;;15.90;99.15;100185.16;5077724;28;20041;-75
2023/07/05 01:28:56;;;;;;;7.68;4.63;;;;;;;15.89;99.22;100178.97;5058815;28;20134;-76
2023/07/05 01:32:00;;;;;;;7.47;4.25;;;;;;;15.91;99.40;100177.09;5060101;28;20064;-76
2023/07/05 01:34:54;;;;;;;9.02;4.60;;;;;;;15.96;99.26;100168.81;5060248;28;20049;-77
2023/07/05 01:37:42;;;;;;;8.43;4.55;;;;;;;15.96;99.05;100168.81;5069063;28;20065;-77
2023/07/05 01:40:29;;;;;;;8.05;4.70;;;;;;;16.01;99.36;100164.06;5069624;28;20076;-77
2023/07/05 01:43:01;;;;;;;9.32;4.55;;;;;;;16.02;99.53;100165.78;5046593;28;20424;-77
2023/07/05 01:45:59;;;;;;;8.60;4.28;;;;;;;16.04;99.56;100150.56;5062721;28;20045;-77
2023/07/05 01:49:03;;;;;;;8.50;3.75;;;;;;;16.06;100.00;100156.66;5060494;28;20395;-75
2023/07/05 01:51:35;;;;;;;7.75;3.80;;;;;;;16.10;100.00;100151.97;5062374;28;20132;-76
2023/07/05 01:54:30;;;;;;;6.50;3.95;;;;;;;16.15;100.00;100141.91;5063690;28;20569;-76
2023/07/05 01:57:17;;;;;;;6.97;3.78;;;;;;;16.20;100.00;100141.63;5055683;28;20592;-76
2023/07/05 01:59:57;;;;;;;6.95;3.80;;;;;;;16.23;99.94;100152.03;5059438;28;20048;-75
2023/07/05 02:02:31;;;;;;;5.78;3.80;;;;;;;16.26;99.95;100155.38;5062876;28;20055;-77
2023/07/05 02:05:02;;;;;;;;;;;;;;;16.29;100.00;100149.81;5061224;28;20057;-77
2023/07/05 02:07:32;;;;;;;8.02;3.83;;;;;;;16.30;99.91;100138.25;5062878;28;19928;-75
2023/07/05 02:10:00;;;;;;;7.40;3.45;;;;;;;16.37;100.00;100137.84;5062156;28;20232;-75
2023/07/05 02:12:27;;;;;;;5.97;3.58;;;;;;;16.39;99.83;100138.59;5064797;28;20111;-74
2023/07/05 02:14:56;;;;;;;9.13;3.00;;;;;;;16.42;99.55;100128.63;5056966;28;20051;-74
2023/07/05 02:17:23;;;;;;;5.10;2.80;;;;;;;16.45;99.26;100124.91;5062763;28;20045;-77
2023/07/05 02:19:51;;;;;;;3.63;2.55;;;;;;;16.45;99.03;100128.41;5062942;28;20053;-75
2023/07/05 02:22:19;;;;;;;4.40;2.42;;;;;;;16.48;98.95;100137.13;5063909;28;20051;-76
2023/07/05 02:24:51;;;;;;;3.22;2.10;;;;;;;16.51;98.51;100153.75;5059541;28;20586;-78
2023/07/05 02:27:19;;;;;;;4.63;2.50;;;;;;;16.52;98.52;100146.63;5058398;28;20934;-77
2023/07/05 02:29:46;;;;;;;5.15;2.33;;;;;;;16.53;98.27;100151.84;5064082;28;20045;-75
2023/07/05 02:32:14;;;;;;;2.85;2.13;;;;;;;16.55;97.76;100155.25;5050182;28;20045;-76
2023/07/05 02:34:42;;;;;;;3.90;1.92;;;;;;;16.57;97.54;100163.13;5062496;28;20469;-76
2023/07/05 02:37:11;;;;;;;5.20;2.00;;;;;;;16.56;97.03;100164.94;5064836;28;20492;-76
2023/07/05 02:39:38;;;;;;;3.15;1.95;;;;;;;16.55;96.69;100168.56;5065962;28;20427;-76
2023/07/05 02:42:07;;;;;;;4.05;2.05;;;;;;;16.57;96.01;100181.75;5067637;28;20068;-74
2023/07/05 02:44:35;;;;;;;2.60;1.80;;;;;;;16.57;92.68;100189.72;5066928;28;20496;-75
2023/07/05 02:47:02;;;;;;;2.22;1.67;;;;;;;16.54;92.15;100184.59;5064539;28;20044;-75
2023/07/05 02:49:29;;;;;;;2.42;1.60;;;;;;;16.49;90.17;100198.22;5062546;28;20157;-75
2023/07/05 02:51:56;;;;;;;4.13;1.30;;;;;;;16.45;88.01;100199.38;5060268;28;20044;-75
2023/07/05 02:54:23;;;;;;;2.58;1.63;;;;;;;16.43;87.90;100204.78;5064616;28;20040;-76
2023/07/05 02:56:51;;;;;;;2.55;1.67;;;;;;;16.41;88.53;100214.69;5065569;28;20045;-75
2023/07/05 02:59:18;;;;;;;4.60;1.33;;;;;;;16.41;87.67;100224.47;5067449;28;20440;-74
2023/07/05 03:01:45;;;;;;;2.33;1.40;;;;;;;16.35;86.45;100233.69;5064270;28;20049;-75
2023/07/05 03:04:14;;;;;;;4.35;1.70;;;;;;;16.25;84.65;100249.41;5063357;28;20048;-76
2023/07/05 03:06:41;;;;;;;2.63;1.50;;;;;;;16.17;84.30;100250.81;5067258;28;20118;-76
2023/07/05 03:09:08;;;;;;;4.72;1.85;;;;;;;16.06;84.04;100248.84;5067513;28;20072;-76
2023/07/05 03:11:35;;;;;;;3.38;1.73;;;;;;;15.91;81.52;100262.13;5064984;28;20550;-75
2023/07/05 03:14:03;;;;;;;4.88;1.92;;;;;;;15.74;79.56;100257.00;5061080;28;20110;-75
2023/07/05 03:16:30;;;;;;;3.88;2.00;;;;;;;15.57;80.23;100266.81;5067325;28;20044;-76
2023/07/05 03:18:57;;;;;;;4.13;2.00;;;;;;;15.41;80.56;100263.38;5065820;28;20476;-76
2023/07/05 03:21:24;;;;;;;3.45;2.00;;;;;;;15.24;80.25;100267.03;5057455;28;20049;-75
2023/07/05 03:23:51;;;;;;;4.32;2.10;;;;;;;15.10;80.52;100271.38;5066408;28;20048;-77
2023/07/05 03:26:19;;;;;;;3.92;1.80;;;;;;;14.98;80.98;100272.91;5064845;28;20081;-80
2023/07/05 03:28:46;;;;;;;3.97;2.10;;;;;;;14.88;80.48;100272.63;5065221;28;20048;-78
2023/07/05 03:31:16;;;;;;;2.90;1.90;;;;;;;14.77;81.11;100269.72;5063910;28;20544;-79
2023/07/05 03:33:44;;;;;;;3.25;2.10;;;;;;;14.77;81.96;100274.16;5060228;28;20504;-76
2023/07/05 03:36:18;;;;;;;3.58;2.00;;;;;;;14.79;81.73;100278.44;5066137;28;20048;-77
2023/07/05 03:38:48;;;;;;;3.60;2.00;;;;;;;14.78;82.30;100267.91;5064443;28;20127;-77
2023/07/05 03:41:20;;;;;;;4.13;2.10;;;;;;;14.73;81.81;100277.00;5065550;28;20045;-77
2023/07/05 03:43:53;;;;;;;3.08;2.10;;;;;;;14.67;81.84;100282.63;5064950;28;20552;-77
2023/07/05 03:46:20;;;;;;;3.72;2.30;;;;;;;14.60;82.21;100291.84;5063527;28;20068;-75
2023/07/05 03:48:48;;;;;;;5.50;2.50;;;;;;;14.56;82.53;100300.91;5065771;28;20045;-76
2023/07/05 03:51:20;;;;;;;3.35;2.40;;;;;;;14.53;82.78;100296.63;5060759;28;20071;-75
2023/07/05 03:53:56;;;;;;;3.95;2.60;;;;;;;14.51;82.62;100284.41;5067301;28;20041;-81
2023/07/05 03:56:24;;;;;;;5.40;2.72;;;;;;;14.47;82.29;100291.69;5066108;28;20056;-80
2023/07/05 03:58:51;;;;;;;4.03;2.72;;;;;;;14.45;82.72;100288.25;5066787;28;20599;-75
2023/07/05 04:01:23;;;;;;;4.85;2.65;;;;;;;14.42;82.23;100291.94;5061996;28;20037;-75
2023/07/05 04:03:54;;;;;;;5.72;2.65;;;;;;;14.38;82.34;100284.25;5066965;28;20191;-74
2023/07/05 04:06:25;;;;;;;4.32;2.80;;;;;;;14.39;82.18;100288.63;5065316;28;20059;-73
2023/07/05 04:08:52;;;;;;;6.82;3.00;;;;;;;14.34;82.57;100291.50;5065701;28;20087;-77
2023/07/05 04:11:20;;;;;;;5.28;2.72;;;;;;;14.35;82.30;100289.72;5066836;28;20052;-75
2023/07/05 04:13:50;;;;;;;7.88;2.97;;;;;;;14.36;82.89;100286.97;5065301;28;20045;-77
2023/07/05 04:16:21;;;;;;;5.80;2.97;;;;;;;14.37;82.88;100285.19;5065748;28;20037;-77
2023/07/05 04:18:54;;;;;;;5.97;2.70;;;;;;;14.35;82.61;100281.75;5065043;28;20883;-76
2023/07/05 04:21:23;;;;;;;4.03;2.65;;;;;;;14.35;82.81;100273.78;5066314;28;20390;-76
2023/07/05 04:23:50;;;;;;;5.78;3.40;;;;;;;14.39;82.43;100284.16;5064441;28;20472;-76
2023/07/05 04:26:26;;;;;;;6.30;3.13;;;;;;;14.41;82.30;100276.09;5057033;28;20033;-76
2023/07/05 04:28:54;;;;;;;3.75;2.50;;;;;;;14.50;82.56;100285.34;5066298;28;20049;-77
2023/07/05 04:31:28;;;;;;;6.38;3.35;;;;;;;14.60;82.50;100292.69;5060812;28;20037;-77
2023/07/05 04:33:58;;;;;;;4.53;2.67;;;;;;;14.68;81.78;100289.66;5057084;28;20099;-76
2023/07/05 04:36:27;;;;;;;5.38;3.03;;;;;;;14.81;81.57;100286.31;5055732;28;20973;-75
2023/07/05 04:38:57;;;;;;;7.10;3.00;;;;;;;14.89;81.25;100300.00;5059759;28;20560;-75
2023/07/05 04:41:25;;;;;;;5.68;3.00;;;;;;;14.86;80.69;100286.88;5059038;28;20099;-74
2023/07/05 04:43:54;;;;;;;6.53;3.42;;;;;;;14.90;80.66;100288.44;5055271;28;20056;-75
2023/07/05 04:46:22;;;;;;;10.75;2.92;;;;;;;14.93;80.95;100288.28;5054634;28;20035;-74
2023/07/05 04:48:50;;;;;;;7.10;3.28;;;;;;;14.94;81.11;100289.13;5059169;28;20076;-74
2023/07/05 04:51:17;;;;;;;5.82;2.92;;;;;;;14.97;80.61;100292.44;5062649;28;20061;-74
2023/07/05 04:53:44;;;;;;;4.55;2.90;;;;;;;15.03;80.86;100307.16;5056429;28;20048;-76
2023/07/05 04:56:14;;;;;;;7.25;3.10;;;;;;;15.14;80.53;100298.59;5057794;28;20053;-73
2023/07/05 04:58:42;;;;;;;7.60;3.10;;;;;;;15.17;80.60;100290.44;5061994;28;20073;-73
2023/07/05 05:01:10;;;;;;;5.70;3.10;;;;;;;15.24;80.22;100290.94;5055769;28;20045;-73
2023/07/05 05:03:38;;;;;;;6.75;2.80;;;;;;;15.25;79.72;100297.97;5063079;28;20490;-74
2023/07/05 05:06:05;;;;;;;14.40;3.80;;;;;;;15.24;78.89;100290.94;5057972;28;20414;-74
2023/07/05 05:08:32;;;;;;;6.25;2.95;;;;;;;15.27;79.11;100282.78;5058871;28;20799;-74
2023/07/05 05:11:03;;;;;;;8.13;2.75;;;;;;;15.30;78.86;100274.66;5055598;28;20098;-73
2023/07/05 05:13:33;;;;;;;5.97;2.97;;;;;;;15.32;78.00;100270.97;5054653;28;20052;-73
2023/07/05 05:16:02;;;;;;;6.10;3.25;;;;;;;15.33;77.63;100270.00;5056504;28;20129;-74
2023/07/05 05:18:32;;;;;;;6.07;3.03;;;;;;;15.58;76.70;100263.22;5059279;28;20045;-73
2023/07/05 05:21:00;;;;;;;6.15;2.97;;;;;;;16.36;74.75;100256.69;5056983;28;20048;-72
2023/07/05 05:23:29;;;;;;;6.28;3.00;;;;;;;17.89;70.40;100256.31;5055876;28;20076;-74
2023/07/05 05:25:56;;;;;;;5.85;2.80;;;;;;;18.53;66.24;100249.16;5053417;28;20164;-74
2023/07/05 05:28:24;;;;;;;5.65;2.63;;;;;;;19.81;63.02;100250.19;5053359;28;20052;-74
2023/07/05 05:30:51;;;;;;;6.88;2.97;;;;;;;19.26;62.12;100255.34;5056052;28;20056;-76
2023/07/05 05:33:18;;;;;;;6.93;2.92;;;;;;;18.40;63.42;100259.88;5054168;28;20508;-73
2023/07/05 05:35:48;;;;;;;6.30;2.95;;;;;;;17.75;65.47;100269.78;5055764;28;20042;-73
2023/07/05 05:38:20;;;;;;;7.10;2.70;;;;;;;17.20;66.70;100277.91;5052377;28;20521;-73
2023/07/05 05:40:49;;;;;;;8.77;2.90;;;;;;;16.92;67.78;100282.38;5053518;28;20041;-73
2023/07/05 05:43:19;;;;;;;7.28;2.92;;;;;;;16.74;68.26;100284.44;5054062;28;20552;-73
2023/07/05 05:45:46;;;;;;;7.63;2.60;;;;;;;16.54;68.60;100291.03;5058934;28;20078;-73
2023/07/05 05:48:14;;;;;;;7.93;2.70;;;;;;;16.34;68.50;100279.00;5058256;28;20053;-75
2023/07/05 05:50:42;;;;;;;9.18;2.67;;;;;;;16.17;68.91;100280.06;5054979;28;20184;-77
2023/07/05 05:53:12;;;;;;;12.95;3.20;;;;;;;16.06;69.14;100281.59;5052761;28;20053;-77
2023/07/05 05:55:40;;;;;;;7.28;2.70;;;;;;;16.01;69.19;100282.84;5055455;28;20088;-76
2023/07/05 05:58:08;;;;;;;5.65;2.70;;;;;;;15.93;68.84;100286.81;5054389;28;20049;-76
2023/07/05 06:00:38;;;;;;;6.57;2.63;;;;;;;15.85;68.89;100291.75;5054382;28;20056;-77
2023/07/05 06:03:06;;;;;;;8.43;2.78;;;;;;;15.74;70.02;100300.34;5053141;28;20041;-77
2023/07/05 06:05:35;;;;;;;5.93;2.83;;;;;;;15.68;69.48;100290.09;5056580;28;20041;-76
2023/07/05 06:08:02;;;;;;;6.10;2.58;;;;;;;15.63;70.19;100289.50;5059341;28;20045;-77
2023/07/05 06:10:32;;;;;;;3.88;2.15;;;;;;;15.65;70.01;100293.81;5060466;28;20102;-77
2023/07/05 06:13:00;;;;;;;4.53;2.70;;;;;;;15.70;70.33;100296.19;5059804;28;20041;-76
2023/07/05 06:15:27;;;;;;;9.48;2.65;;;;;;;15.77;70.62;100297.50;5058822;28;20519;-76
2023/07/05 06:17:54;;;;;;;5.18;2.83;;;;;;;15.78;70.34;100295.69;5060761;28;20072;-77
2023/07/05 06:20:26;;;;;;;9.48;2.63;;;;;;;15.74;69.34;100292.38;5058953;28;20045;-76
2023/07/05 06:22:53;;;;;;;6.85;2.90;;;;;;;15.68;69.86;100301.56;5059574;28;20041;-76
2023/07/05 06:25:21;;;;;;;6.75;2.60;;;;;;;15.68;70.33;100298.06;5059068;28;20065;-76
2023/07/05 06:27:48;;;;;;;6.75;2.85;;;;;;;15.67;70.29;100307.81;5058331;28;20099;-76
2023/07/05 06:30:16;;;;;;;6.65;2.58;;;;;;;15.69;69.60;100308.59;5061288;28;20045;-77
2023/07/05 06:32:43;;;;;;;7.15;3.00;;;;;;;15.72;69.65;100318.16;5059354;28;20050;-73
2023/07/05 06:35:11;;;;;;;6.10;2.42;;;;;;;15.74;69.14;100313.63;5065894;28;20068;-73
2023/07/05 06:37:38;;;;;;;10.73;2.80;;;;;;;15.77;69.45;100323.25;5055998;28;20048;-73
2023/07/05 06:40:06;;;;;;;5.97;2.40;;;;;;;15.79;70.22;100316.00;5064054;28;20095;-73
2023/07/05 06:42:33;;;;;;;2.90;1.65;;;;;;;15.75;68.86;100320.66;5059599;28;20503;-73
2023/07/05 06:45:08;;;;;;;7.60;2.30;;;;;;;15.66;68.73;100323.88;5059909;28;20131;-74
2023/07/05 06:47:37;;;;;;;8.32;2.40;;;;;;;15.69;69.50;100327.19;5064092;28;20044;-75
2023/07/05 06:50:06;;;;;;;8.18;2.20;;;;;;;15.73;69.32;100327.03;5061250;28;20059;-73
2023/07/05 06:52:33;;;;;;;13.18;2.70;;;;;;;15.90;68.20;100318.91;5061533;28;20517;-74
2023/07/05 06:55:00;;;;;;;8.38;2.55;;;;;;;15.93;68.19;100331.16;5058055;28;20497;-74
2023/07/05 06:57:27;;;;;;;5.85;1.85;;;;;;;16.00;68.35;100327.19;5060044;28;20091;-73
2023/07/05 06:59:54;;;;;;;11.27;2.30;;;;;;;16.09;67.93;100325.75;5066942;28;20041;-75
2023/07/05 07:02:23;;;;;;;8.63;2.17;;;;;;;16.18;67.33;100333.16;5067899;28;20081;-74
2023/07/05 07:04:50;;;;;;;7.72;1.98;;;;;;;16.34;66.52;100334.88;5066450;28;20049;-74
2023/07/05 07:07:17;;;;;;;12.38;2.97;;;;;;;16.52;66.16;100348.81;5066568;28;20040;-74
2023/07/05 07:09:44;;;;;;;7.97;2.50;;;;;;;16.65;65.08;100346.25;5064496;28;20094;-74
2023/07/05 07:12:11;;;;;;;17.50;2.35;;;;;;;16.74;64.41;100338.50;5068941;28;20048;-74
2023/07/05 07:14:38;;;;;;;11.77;1.88;;;;;;;16.98;63.47;100351.22;5065338;28;20041;-75
2023/07/05 07:17:05;;;;;;;7.00;2.05;;;;;;;17.12;62.28;100355.63;5066239;28;20099;-74
2023/07/05 07:19:33;;;;;;;11.07;1.90;;;;;;;17.30;61.41;100331.41;5067104;28;20052;-74
2023/07/05 07:22:00;;;;;;;7.70;1.85;;;;;;;17.47;61.39;100356.91;5071997;28;20491;-72
2023/07/05 07:24:28;;;;;;;13.05;2.15;;;;;;;17.67;60.19;100358.25;5073603;28;20099;-73
2023/07/05 07:26:56;;;;;;;6.90;1.70;;;;;;;17.71;58.98;100381.06;5063927;28;20540;-73
2023/07/05 07:29:24;;;;;;;15.45;2.40;;;;;;;17.86;59.08;100363.16;5059991;28;20075;-74
2023/07/05 07:31:51;;;;;;;7.35;1.77;;;;;;;17.86;58.40;100365.84;5075871;28;20060;-75
2023/07/05 07:34:19;;;;;;;14.15;1.90;;;;;;;17.72;58.66;100371.28;5072788;28;20059;-73
2023/07/05 07:36:46;;;;;;;11.98;2.10;;;;;;;17.50;59.43;100386.88;5059236;28;20053;-73
2023/07/05 07:39:14;;;;;;;10.30;2.10;;;;;;;17.33;60.21;100381.81;5066725;28;20472;-73
2023/07/05 07:41:41;;;;;;;2.70;1.20;;;;;;;17.21;60.36;100410.97;5073422;28;20045;-74
2023/07/05 07:44:10;;;;;;;15.43;2.50;;;;;;;17.04;60.26;100396.06;5066899;28;20037;-74
2023/07/05 07:46:39;;;;;;;9.57;1.75;;;;;;;17.07;60.44;100403.03;5066182;28;20319;-74
2023/07/05 07:49:09;;;;;;;9.32;2.15;;;;;;;17.25;59.60;100410.78;5067996;28;20045;-75
2023/07/05 07:51:40;;;;;;;6.43;1.80;;;;;;;17.40;59.58;100412.41;5065763;28;20176;-74
2023/07/05 07:54:16;;;;;;;25.33;2.22;;;;;;;17.68;58.50;100427.44;5068788;28;20078;-74
2023/07/05 07:56:46;;;;;;;8.18;1.77;;;;;;;17.58;58.74;100426.34;5080725;28;20501;-75
2023/07/05 07:59:16;;;;;;;11.38;1.83;;;;;;;17.37;58.80;100426.81;5061945;28;20045;-73
2023/07/05 08:01:45;;;;;;;8.27;1.55;;;;;;;17.10;60.86;100455.22;5062849;28;20049;-74
2023/07/05 08:04:14;;;;;;;17.65;2.58;;;;;;;16.91;61.36;100457.22;5084274;28;20324;-74
2023/07/05 08:06:48;;;;;;;9.60;2.10;;;;;;;16.84;62.20;100457.72;5065924;28;20383;-75
2023/07/05 08:09:23;;;;;;;8.90;1.90;;;;;;;16.89;62.44;100463.59;5059484;28;20539;-75
2023/07/05 08:11:50;;;;;;;2.53;1.33;;;;;;;17.02;62.89;100471.69;5084083;28;20044;-75
2023/07/05 08:14:18;;;;;;;4.25;1.42;;;;;;;17.13;62.76;100463.88;5068286;28;20041;-75
2023/07/05 08:16:46;;;;;;;8.10;2.00;;;;;;;17.12;62.62;100462.16;5073507;28;20599;-76
2023/07/05 08:19:15;;;;;;;22.42;3.22;;;;;;;17.02;62.54;100472.56;5076764;28;20143;-75
2023/07/05 08:21:44;;;;;;;12.32;1.90;;;;;;;16.91;62.58;100469.69;5072223;28;20045;-76
2023/07/05 08:24:13;;;;;;;10.30;1.92;;;;;;;16.74;63.46;100465.41;5071737;28;20124;-75
2023/07/05 08:26:44;;;;;;;6.45;2.00;;;;;;;16.69;63.81;100483.47;5081273;28;20053;-75
2023/07/05 08:29:11;;;;;;;18.10;2.67;;;;;;;16.74;63.81;100481.38;5077560;28;20527;-74
2023/07/05 08:31:39;;;;;;;8.18;1.98;;;;;;;17.02;63.88;100475.22;5070898;28;20586;-74
2023/07/05 08:34:08;;;;;;;9.80;2.08;;;;;;;17.04;63.92;100461.81;5083650;28;20051;-74
2023/07/05 08:36:39;;;;;;;5.40;2.00;;;;;;;16.94;63.65;100482.81;5072825;28;20130;-74
2023/07/05 08:39:11;;;;;;;6.40;1.77;;;;;;;16.87;63.60;100482.34;5075857;28;20577;-75
2023/07/05 08:41:52;;;;;;;10.75;2.10;;;;;;;16.79;63.71;100475.78;5081210;28;20588;-75
2023/07/05 08:44:41;;;;;;;6.25;2.10;;;;;;;16.80;63.66;100482.81;5066615;28;20048;-74
2023/07/05 08:47:54;;;;;;;10.73;2.30;;;;;;;17.11;63.14;100484.41;5077269;28;20049;-75
2023/07/05 08:50:34;;;;;;;8.60;1.92;;;;;;;17.44;62.82;100496.53;5061311;28;20079;-73
2023/07/05 08:53:20;;;;;;;7.82;2.00;;;;;;;17.53;62.62;100501.25;5072412;28;20178;-74
2023/07/05 08:56:00;;;;;;;9.40;2.10;;;;;;;17.42;62.95;100502.94;5070845;28;20075;-74
2023/07/05 08:58:49;;;;;;;9.88;2.40;;;;;;;17.47;62.10;100490.16;5060353;28;20137;-74
2023/07/05 09:01:24;;;;;;;13.00;2.38;;;;;;;17.60;61.57;100485.72;5083764;28;20045;-73
2023/07/05 09:03:51;;;;;;;10.98;2.70;;;;;;;17.67;60.97;100516.34;5079195;28;20581;-74
2023/07/05 09:06:29;;;;;;;12.13;2.65;;;;;;;17.86;60.28;100501.81;5053338;28;20511;-74
2023/07/05 09:09:42;;;;;;;16.83;2.80;;;;;;;17.97;59.79;100517.13;5077384;28;20544;-74
2023/07/05 09:12:41;;;;;;;13.70;2.45;;;;;;;17.97;59.47;100530.47;5083278;28;20132;-75
2023/07/05 09:15:22;;;;;;;21.92;3.00;;;;;;;18.00;59.63;100528.44;5078009;28;20051;-75
2023/07/05 09:18:21;;;;;;;19.63;3.67;;;;;;;18.07;59.99;100546.69;5070221;28;20468;-75
2023/07/05 09:21:14;;;;;;;20.02;3.00;;;;;;;18.31;59.20;100534.41;5062146;28;20041;-74
2023/07/05 09:23:56;;;;;;;13.65;2.67;;;;;;;18.58;58.35;100548.63;5075022;28;20131;-76
2023/07/05 09:26:33;;;;;;;49.58;4.95;;;;;;;18.65;56.74;100533.91;5054796;28;20049;-74
2023/07/05 09:29:46;;;;;;;27.33;3.50;;;;;;;18.81;56.07;100563.06;5077052;28;20470;-74
2023/07/05 09:32:30;;;;;;;9.68;2.42;;;;;;;18.92;56.80;100541.78;5080760;28;20053;-74
2023/07/05 09:34:59;;;;;;;14.65;2.25;;;;;;;18.90;56.49;100562.41;5078146;28;20045;-74
2023/07/05 09:37:35;;;;;;;21.45;3.13;;;;;;;19.09;56.37;100574.50;5078471;28;20056;-74
2023/07/05 09:40:18;;;;;;;18.02;2.90;;;;;;;19.12;55.94;100568.09;5068938;28;20932;-74
2023/07/05 09:43:02;;;;;;;16.80;3.00;;;;;;;19.12;56.26;100568.94;5055019;28;20132;-74
2023/07/05 09:45:31;;;;;;;12.48;2.53;;;;;;;18.97;56.48;100578.91;5079136;28;20697;-73
2023/07/05 09:48:08;;;;;;;13.52;2.38;;;;;;;18.82;55.86;100583.47;5079189;28;20550;-74
2023/07/05 09:50:47;;;;;;;12.50;2.50;;;;;;;18.63;56.24;100587.41;5060275;28;20052;-72
2023/07/05 09:53:39;;;;;;;13.02;2.15;;;;;;;18.56;57.33;100596.78;5069591;28;20128;-73
2023/07/05 09:56:12;;;;;;;29.30;3.28;;;;;;;18.49;56.92;100598.16;5080505;28;20075;-73
2023/07/05 09:58:44;;;;;;;13.50;2.65;;;;;;;18.45;56.67;100623.34;5060179;28;20045;-73
2023/07/05 10:01:18;;;;;;;22.55;2.55;;;;;;;18.41;56.22;100678.75;5071818;28;20047;-73
2023/07/05 10:03:57;;;;;;;11.68;2.10;;;;;;;18.40;55.86;100622.78;5081552;28;20045;-73
2023/07/05 10:06:27;;;;;;;11.80;1.95;;;;;;;18.60;54.94;100649.00;5054104;28;20062;-73
2023/07/05 10:09:00;;;;;;;15.50;2.30;;;;;;;18.59;55.20;100651.78;5077480;28;20787;-72
2023/07/05 10:11:35;;;;;;;9.05;2.55;;;;;;;18.49;55.90;100606.16;5081391;28;20114;-73
2023/07/05 10:14:15;;;;;;;17.00;2.67;;;;;;;18.37;55.79;100647.00;5068525;28;20037;-74
2023/07/05 10:16:54;;;;;;;37.70;3.92;;;;;;;18.35;55.06;100654.28;5072114;28;20441;-74
2023/07/05 10:19:30;;;;;;;13.48;2.25;;;;;;;18.55;54.88;100653.81;5077417;28;20040;-74
2023/07/05 10:22:13;;;;;;;10.02;1.65;;;;;;;18.82;53.59;100644.03;5069177;28;20124;-75
2023/07/05 10:24:46;;;;;;;18.20;2.10;;;;;;;19.04;53.33;100640.75;5077834;28;20045;-75
2023/07/05 10:27:31;;;;;;;9.88;2.05;;;;;;;19.27;52.22;100663.19;5073877;28;20045;-75
2023/07/05 10:30:13;;;;;;;40.25;3.70;;;;;;;19.63;50.10;100671.41;5063076;28;20032;-74
2023/07/05 10:32:43;;;;;;;20.55;2.22;;;;;;;20.00;49.48;100672.31;5084812;28;20120;-75
2023/07/05 10:35:27;;;;;;;25.58;2.28;;;;;;;20.29;46.98;100673.84;5075584;28;20041;-74
2023/07/05 10:37:57;;;;;;;17.90;2.05;;;;;;;20.37;47.78;100683.94;5082362;28;20045;-75
2023/07/05 10:40:26;;;;;;;22.38;2.67;;;;;;;20.37;47.31;100679.47;5068866;28;20532;-74
2023/07/05 10:43:01;;;;;;;9.85;1.75;;;;;;;20.27;47.74;100700.69;5071106;28;20102;-75
2023/07/05 10:45:34;;;;;;;15.88;2.22;;;;;;;20.42;48.07;100695.19;5066800;28;20041;-75
2023/07/05 10:48:03;;;;;;;15.93;1.95;;;;;;;20.44;44.40;100714.66;5063486;28;20049;-73
2023/07/05 10:50:37;;;;;;;15.75;1.80;;;;;;;20.51;44.74;100701.66;5070955;28;20059;-75
2023/07/05 10:53:12;;;;;;;34.33;3.08;;;;;;;20.68;44.67;100709.31;5082574;28;20040;-74
2023/07/05 10:55:50;;;;;;;24.48;2.00;;;;;;;20.69;44.19;100720.84;5069971;28;20143;-75
2023/07/05 10:58:23;;;;;;;10.95;1.35;;;;;;;20.99;44.22;100712.38;5083457;28;20060;-75
2023/07/05 11:01:23;;;;;;;21.65;2.10;;;;;;;20.99;44.15;100711.50;5076393;28;20040;-75
2023/07/05 11:04:01;;;;;;;17.30;1.75;;;;;;;21.19;43.31;100709.97;5074948;28;20151;-75
2023/07/05 11:06:28;;;;;;;17.90;1.95;;;;;;;21.25;43.73;100715.72;5076282;28;20045;-75
2023/07/05 11:08:57;;;;;;;12.98;1.80;;;;;;;21.09;42.97;100740.16;5075538;28;20413;-74
2023/07/05 11:11:32;;;;;;;18.30;2.17;;;;;;;20.82;44.02;100735.06;5078077;28;20155;-75
2023/07/05 11:14:03;;;;;;;17.83;1.67;;;;;;;20.82;43.50;100744.91;5070875;28;20456;-75
2023/07/05 11:16:33;;;;;;;10.88;1.30;;;;;;;20.73;44.21;100733.06;5082197;28;20043;-75
2023/07/05 11:19:05;;;;;;;6.35;1.40;;;;;;;20.93;43.64;100729.75;5067462;28;20159;-74
2023/07/05 11:21:44;;;;;;;37.92;2.88;;;;;;;21.05;42.27;100740.53;5071552;28;20045;-74
2023/07/05 11:24:38;;;;;;;11.50;1.52;;;;;;;20.92;43.54;100735.22;5083006;28;20104;-74
2023/07/05 11:27:25;;;;;;;27.02;2.30;;;;;;;20.53;43.42;100742.56;5062213;28;20076;-74
2023/07/05 11:29:53;;;;;;;13.98;1.60;;;;;;;20.17;44.55;100756.72;5072397;28;20045;-73
2023/07/05 11:32:26;;;;;;;7.53;1.42;;;;;;;19.96;44.82;100764.44;5055226;28;20135;-75
2023/07/05 11:34:55;;;;;;;21.52;2.42;;;;;;;19.98;44.75;100773.22;5077040;28;20044;-74
2023/07/05 11:37:23;;;;;;;21.13;2.00;;;;;;;19.92;44.63;100768.34;5076446;28;20132;-73
2023/07/05 11:39:52;;;;;;;8.07;1.17;;;;;;;19.77;45.31;100767.56;5080988;28;20615;-73
2023/07/05 11:42:24;;;;;;;11.68;1.10;;;;;;;19.44;46.60;100805.50;5058161;28;20045;-72
2023/07/05 11:45:03;;;;;;;18.50;1.65;;;;;;;18.89;47.85;100797.53;5074778;28;20568;-72
2023/07/05 11:47:33;;;;;;;7.22;1.10;;;;;;;18.71;48.31;100799.59;5071810;28;20041;-73